Maryland METAR Reports


Distance/Direction noted is from Ellicott City, MD as the crow flies

KCBE - Cumberland - 118 miles WNW
Updated: Wed, 04/16/2014 11:54 AM
Clear
Clear
 Wind from NE
Wind: NE 8 mph
Temperature: 39°F
Wind Chill: 33°F
Dew Point: 10°F
Humidity: 30%
Barometer: 30.50 inHg
Clouds: Clear
Visibility: 10 miles
2014/04/16 15:54 KCBE 161554Z AUTO 04007KT 10SM CLR 04/M12 A3050 RMK AO1
KHGR - Hagerstown - 57 miles NW
Updated: Wed, 04/16/2014 11:53 AM
Clear
Clear
 Wind from varies
Wind: varies 6 mph, Gust: 18 mph
Temperature: 37°F
Wind Chill: 32°F
Dew Point: 12°F
Humidity: 35%
Barometer: 30.45 inHg
Clouds: Clear
Visibility: 10 miles
2014/04/16 15:53 KHGR 161553Z VRB05G16KT 10SM CLR 03/M11 A3045 RMK AO2 SLP330 T00281106
 
KFDK - Frederick - 34 miles NW
Updated: Wed, 04/16/2014 10:55 AM
Clear
Clear
 Wind from N
Wind: N 10 mph
Temperature: 39°F
Wind Chill: 32°F
Dew Point: 18°F
Humidity: 42%
Barometer: 30.49 inHg
Clouds: Clear
Visibility: 10 miles
2014/04/16 14:55 KFDK 161455Z 01009KT 10SM SKC 04/M08 A3049
KGAI - Gaithersburg - 26 miles SW
Updated: Wed, 04/16/2014 11:55 AM
Clear
Clear
 Wind from NNW
Wind: NNW 6 mph
Temperature: 39°F
Wind Chill: 35°F
Dew Point: 18°F
Humidity: 42%
Barometer: 30.48 inHg
Clouds: Clear
Visibility: 10 miles
2014/04/16 15:55 KGAI 161555Z AUTO 34005KT 10SM CLR 04/M08 A3048 RMK AO1
 
KBWI - BWI Airport - 15 miles SE
Updated: Wed, 04/16/2014 11:54 AM
Few Clouds
Few Clouds
 Wind from NNW
Wind: NNW 14 mph, Gust: 21 mph
Temperature: 41°F
Wind Chill: 33°F
Dew Point: 12°F
Humidity: 31%
Barometer: 30.45 inHg
Clouds: Few Clouds
Visibility: 10 miles
Cloud Details: Few Clouds 25000 ft
2014/04/16 15:54 KBWI 161554Z 33012G18KT 10SM FEW250 05/M11 A3045 RMK AO2 SLP312 T00501106
KNAK - Annapolis - 32 miles SSE
Updated: Wed, 04/16/2014 11:54 AM
Clear
Clear
 Wind from N
Wind: N 16 mph, Gust: 22 mph
Temperature: 39°F
Wind Chill: 30°F
Dew Point: 19°F
Humidity: 45%
Barometer: 30.45 inHg
Clouds: Clear
Visibility: 10 miles
2014/04/16 15:54 KNAK 161554Z AUTO 35014G19KT 10SM CLR 04/M07 A3045 RMK AO2 SLP312 T00441067
 
KESN - Easton - 63 miles SE
Updated: Wed, 04/16/2014 11:56 AM
Clear
Clear
 Wind from NNW
Wind: NNW 14 mph
Temperature: 43°F
Wind Chill: 36°F
Dew Point: 21°F
Humidity: 42%
Barometer: 30.47 inHg
Clouds: Clear
Visibility: 10 miles
2014/04/16 15:56 KESN 161556Z 34012KT 10SM SKC 06/M06 A3047
KSBY - Salisbury - 112 miles SE
Updated: Wed, 04/16/2014 11:54 AM
Clear
Clear
 Wind from NNW
Wind: NNW 17 mph, Gust: 24 mph
Temperature: 45°F
Wind Chill: 38°F
Dew Point: 19°F
Humidity: 37%
Barometer: 30.41 inHg
Clouds: Clear
Visibility: 10 miles
2014/04/16 15:54 KSBY 161554Z 34015G21KT 10SM CLR 07/M07 A3041 RMK AO2 SLP299 T00671067